Time;durP1;ratioP1;P1;durP2;ratioP2;P2;SDS_P1;SDS_P2;PMS_P1;PMS_P2;Temp;Humidity;BMP_temperature;BMP_pressure;BME280_temperature;BME280_humidity;BME280_pressure;Samples;Min_cycle;Max_cycle;Signal;HPM_P1;HPM_P2
2023/09/10 00:01:08;;;;;;;10.55;6.13;;;21.80;99.90;;;;;;4968824;28;20114;-73
2023/09/10 00:03:49;;;;;;;8.75;5.45;;;21.80;99.90;;;;;;4969414;28;20028;-73
2023/09/10 00:06:15;;;;;;;11.38;6.38;;;21.70;99.90;;;;;;4967039;28;20148;-72
2023/09/10 00:08:43;;;;;;;13.35;6.10;;;21.70;99.90;;;;;;4970803;28;20580;-72
2023/09/10 00:11:09;;;;;;;11.68;6.45;;;21.60;99.90;;;;;;4981395;28;20062;-72
2023/09/10 00:13:34;;;;;;;8.02;5.60;;;21.60;99.90;;;;;;4971426;28;20058;-73
2023/09/10 00:16:00;;;;;;;10.18;6.07;;;21.60;99.90;;;;;;4971159;28;20514;-72
2023/09/10 00:18:35;;;;;;;10.80;6.00;;;21.60;99.90;;;;;;4972740;28;20027;-73
2023/09/10 00:21:01;;;;;;;10.43;6.25;;;21.60;99.90;;;;;;4969494;28;20026;-72
2023/09/10 00:23:26;;;;;;;11.35;6.72;;;21.50;99.90;;;;;;4982309;28;20394;-72
2023/09/10 00:25:58;;;;;;;17.77;7.80;;;21.50;99.90;;;;;;4972048;28;20082;-73
2023/09/10 00:28:42;;;;;;;14.70;7.63;;;21.40;99.90;;;;;;4966201;28;20415;-72
2023/09/10 00:31:33;;;;;;;;;;;21.40;99.90;;;;;;4968142;28;20046;-72
2023/09/10 00:33:58;;;;;;;14.65;7.10;;;21.40;99.90;;;;;;4966364;28;19957;-73
2023/09/10 00:36:27;;;;;;;14.80;8.30;;;21.40;99.90;;;;;;4968456;28;20043;-73
2023/09/10 00:38:52;;;;;;;16.25;8.82;;;21.30;99.90;;;;;;4970023;28;20102;-72
2023/09/10 00:41:24;;;;;;;13.85;7.80;;;21.30;99.90;;;;;;4967784;28;20099;-73
2023/09/10 00:43:50;;;;;;;10.75;8.00;;;21.20;99.90;;;;;;4968210;28;20023;-73
2023/09/10 00:46:15;;;;;;;10.95;7.18;;;21.20;99.90;;;;;;4983309;28;20501;-72
2023/09/10 00:48:41;;;;;;;10.98;7.82;;;21.20;99.90;;;;;;4972726;28;20034;-72
2023/09/10 00:51:16;;;;;;;13.02;8.20;;;21.10;99.90;;;;;;4970666;28;20472;-72
2023/09/10 00:53:42;;;;;;;13.10;8.18;;;21.10;99.90;;;;;;4972475;28;20025;-72
2023/09/10 00:56:21;;;;;;;12.07;7.15;;;21.00;99.90;;;;;;4985617;28;20027;-72
2023/09/10 00:58:53;;;;;;;15.93;7.75;;;21.00;99.90;;;;;;4972309;28;20065;-72
2023/09/10 01:01:19;;;;;;;11.35;7.30;;;21.00;99.90;;;;;;4971098;28;20031;-72
2023/09/10 01:03:48;;;;;;;14.00;8.30;;;20.90;99.90;;;;;;4973826;28;20058;-72
2023/09/10 01:06:17;;;;;;;14.50;7.20;;;20.90;99.90;;;;;;4983978;28;20031;-72
2023/09/10 01:08:48;;;;;;;10.93;7.50;;;20.90;99.90;;;;;;4972798;28;20485;-72
2023/09/10 01:12:01;;;;;;;13.85;8.32;;;20.90;99.90;;;;;;4972935;28;20049;-72
2023/09/10 01:14:36;;;;;;;11.73;8.55;;;20.80;99.90;;;;;;4966370;28;20130;-73
2023/09/10 01:17:29;;;;;;;15.98;9.18;;;20.80;99.90;;;;;;4972424;28;20556;-72
2023/09/10 01:20:13;;;;;;;14.20;7.97;;;20.80;99.90;;;;;;4970512;28;20451;-73
2023/09/10 01:23:11;;;;;;;16.67;7.35;;;20.70;99.90;;;;;;4969710;28;20030;-72
2023/09/10 01:25:40;;;;;;;14.02;8.23;;;20.80;99.90;;;;;;4963306;28;20501;-72
2023/09/10 01:28:06;;;;;;;11.73;7.70;;;20.70;99.90;;;;;;4971146;28;20135;-72
2023/09/10 01:30:33;;;;;;;17.80;7.72;;;20.70;99.90;;;;;;4971574;28;20326;-73
2023/09/10 01:33:27;;;;;;;11.35;7.55;;;20.60;99.90;;;;;;4987050;23;20031;-77
2023/09/10 01:36:07;;;;;;;14.18;7.45;;;20.60;99.90;;;;;;4973053;28;20409;-75
2023/09/10 01:39:10;;;;;;;10.65;7.28;;;20.60;99.90;;;;;;4972477;28;20026;-77
2023/09/10 01:41:45;;;;;;;17.50;7.85;;;20.60;99.90;;;;;;4967556;28;20030;-76
2023/09/10 01:44:11;;;;;;;10.95;6.90;;;20.60;99.90;;;;;;4953740;28;20110;-76
2023/09/10 01:46:52;;;;;;;12.25;6.82;;;20.60;99.90;;;;;;4955234;28;20035;-75
2023/09/10 01:49:24;;;;;;;9.77;7.10;;;20.50;99.90;;;;;;4954287;28;20023;-76
2023/09/10 01:51:50;;;;;;;16.98;7.35;;;20.50;99.90;;;;;;4956317;28;20027;-75
2023/09/10 01:54:15;;;;;;;16.33;7.47;;;20.50;99.90;;;;;;4955083;28;20367;-75
2023/09/10 01:56:47;;;;;;;11.50;8.20;;;20.50;99.90;;;;;;4956044;28;20027;-76
2023/09/10 01:59:12;;;;;;;11.70;7.60;;;20.50;99.90;;;;;;4969912;28;20086;-76
2023/09/10 02:01:41;;;;;;;9.63;6.93;;;20.50;99.90;;;;;;4954978;28;20418;-76
2023/09/10 02:04:07;;;;;;;10.40;6.95;;;20.50;99.90;;;;;;4954726;28;20032;-75
2023/09/10 02:06:32;;;;;;;16.02;7.55;;;20.50;99.90;;;;;;4951903;28;20380;-76
2023/09/10 02:09:07;;;;;;;11.45;7.90;;;20.50;99.90;;;;;;4949725;28;20928;-75
2023/09/10 02:11:39;;;;;;;11.82;7.47;;;20.50;99.90;;;;;;4968742;28;20019;-76
2023/09/10 02:14:07;;;;;;;10.20;7.63;;;20.40;99.90;;;;;;4954858;28;20050;-76
2023/09/10 02:16:35;;;;;;;12.45;7.35;;;20.40;99.90;;;;;;4969665;28;20115;-76
2023/09/10 02:19:05;;;;;;;13.40;8.35;;;20.40;99.90;;;;;;4956080;28;20399;-76
2023/09/10 02:21:30;;;;;;;11.82;7.70;;;20.40;99.90;;;;;;4955060;28;20457;-77
2023/09/10 02:23:56;;;;;;;12.20;7.35;;;20.30;99.90;;;;;;4953546;28;20039;-77
2023/09/10 02:26:24;;;;;;;11.40;6.95;;;20.30;99.90;;;;;;4954556;28;20019;-77
2023/09/10 02:28:59;;;;;;;14.07;7.72;;;20.30;99.90;;;;;;4953540;28;20023;-77
2023/09/10 02:31:25;;;;;;;13.48;7.15;;;20.30;99.90;;;;;;4955914;28;20082;-76
2023/09/10 02:34:00;;;;;;;13.20;7.88;;;20.30;99.90;;;;;;4954017;28;20039;-75
2023/09/10 02:36:31;;;;;;;13.18;7.80;;;20.20;99.90;;;;;;4951919;28;20406;-77
2023/09/10 02:38:57;;;;;;;11.90;7.85;;;20.20;99.90;;;;;;4968467;28;20023;-76
2023/09/10 02:41:26;;;;;;;9.52;7.43;;;20.20;99.90;;;;;;4968052;28;20089;-75
2023/09/10 02:43:51;;;;;;;11.88;7.47;;;20.20;99.90;;;;;;4951626;28;20026;-76
2023/09/10 02:46:20;;;;;;;13.88;7.70;;;20.10;99.90;;;;;;4954496;28;20027;-77
2023/09/10 02:48:55;;;;;;;10.48;7.32;;;20.10;99.90;;;;;;4969509;28;20050;-77
2023/09/10 02:51:29;;;;;;;13.95;8.48;;;20.10;99.90;;;;;;4968307;28;20122;-77
2023/09/10 02:53:57;;;;;;;15.65;8.35;;;20.10;99.90;;;;;;4951774;28;20019;-77
2023/09/10 02:56:23;;;;;;;10.88;7.15;;;20.00;99.90;;;;;;4953747;28;20062;-76
2023/09/10 02:58:55;;;;;;;13.23;8.30;;;20.00;99.90;;;;;;4952265;29;20118;-76
2023/09/10 03:01:23;;;;;;;13.05;8.20;;;20.00;99.90;;;;;;4946922;28;20398;-75
2023/09/10 03:03:55;;;;;;;12.10;8.05;;;20.00;99.90;;;;;;4953870;28;20050;-74
2023/09/10 03:06:20;;;;;;;11.88;7.60;;;20.00;99.90;;;;;;4954503;28;20154;-76
2023/09/10 03:08:49;;;;;;;9.48;7.28;;;20.00;99.90;;;;;;4954169;28;20505;-76
2023/09/10 03:11:21;;;;;;;14.18;7.03;;;19.90;99.90;;;;;;4953452;28;20032;-76
2023/09/10 03:13:46;;;;;;;14.05;7.85;;;19.90;99.90;;;;;;4954080;28;20391;-75
2023/09/10 03:16:15;;;;;;;12.55;7.07;;;19.90;99.90;;;;;;4951485;28;20031;-76
2023/09/10 03:18:52;;;;;;;13.23;7.53;;;19.80;99.90;;;;;;4954605;28;20038;-76
2023/09/10 03:21:21;;;;;;;12.38;7.50;;;19.80;99.90;;;;;;4953182;29;20031;-76
2023/09/10 03:23:47;;;;;;;10.95;6.95;;;19.80;99.90;;;;;;4951521;29;20110;-75
2023/09/10 03:26:19;;;;;;;11.85;7.45;;;19.70;99.90;;;;;;4955065;28;20128;-76
2023/09/10 03:28:50;;;;;;;14.98;7.72;;;19.70;99.90;;;;;;4954110;28;20026;-75
2023/09/10 03:31:19;;;;;;;9.65;6.90;;;19.70;99.90;;;;;;4951921;29;20024;-74
2023/09/10 03:33:48;;;;;;;10.38;7.68;;;19.70;99.90;;;;;;4952588;28;20046;-76
2023/09/10 03:36:14;;;;;;;11.18;7.60;;;19.60;99.90;;;;;;4952881;28;20536;-75
2023/09/10 03:38:43;;;;;;;10.65;8.23;;;19.70;99.90;;;;;;4952543;28;20019;-78
2023/09/10 03:41:11;;;;;;;10.25;8.05;;;19.70;99.90;;;;;;4952840;28;20027;-75
2023/09/10 03:43:46;;;;;;;11.82;7.68;;;19.70;99.90;;;;;;4967368;28;20019;-76
2023/09/10 03:46:11;;;;;;;13.90;7.88;;;19.70;99.90;;;;;;4953421;28;20362;-75
2023/09/10 03:48:40;;;;;;;12.27;7.75;;;19.60;99.90;;;;;;4952237;28;20014;-76
2023/09/10 03:51:05;;;;;;;14.27;8.32;;;19.60;99.90;;;;;;4952681;28;20036;-77
2023/09/10 03:53:37;;;;;;;10.75;7.88;;;19.60;99.90;;;;;;4951722;28;20027;-75
2023/09/10 03:56:09;;;;;;;9.23;7.40;;;19.60;99.90;;;;;;4966294;28;20031;-75
2023/09/10 03:58:34;;;;;;;12.23;7.28;;;19.60;99.90;;;;;;4951577;28;20438;-75
2023/09/10 04:01:00;;;;;;;12.35;7.38;;;19.60;99.90;;;;;;4951528;28;20044;-76
2023/09/10 04:03:29;;;;;;;11.75;7.97;;;19.60;99.90;;;;;;4951402;28;20069;-76
2023/09/10 04:05:54;;;;;;;10.60;7.22;;;19.60;99.90;;;;;;4955113;28;20102;-75
2023/09/10 04:08:20;;;;;;;13.90;7.85;;;19.60;99.90;;;;;;4952945;28;20118;-77
2023/09/10 04:10:49;;;;;;;13.30;8.10;;;19.60;99.90;;;;;;4954074;28;20046;-77
2023/09/10 04:13:20;;;;;;;13.30;7.60;;;19.60;99.90;;;;;;4952540;28;20046;-76
2023/09/10 04:15:58;;;;;;;12.73;8.02;;;19.60;99.90;;;;;;4953921;28;20077;-77
2023/09/10 04:18:27;;;;;;;12.63;8.18;;;19.60;99.90;;;;;;4953560;28;20035;-77
2023/09/10 04:20:58;;;;;;;14.73;9.23;;;19.60;99.90;;;;;;4951255;28;20110;-77
2023/09/10 04:23:24;;;;;;;16.98;9.90;;;19.60;99.90;;;;;;4953713;28;20043;-76
2023/09/10 04:25:50;;;;;;;18.33;9.10;;;19.60;99.90;;;;;;4958223;28;20023;-75
2023/09/10 04:28:16;;;;;;;13.65;8.52;;;19.60;99.90;;;;;;4972085;28;20541;-75
2023/09/10 04:30:42;;;;;;;12.23;8.95;;;19.70;99.90;;;;;;4957472;28;20019;-74
2023/09/10 04:33:08;;;;;;;12.57;8.50;;;19.60;99.90;;;;;;4955830;28;20609;-77
2023/09/10 04:35:36;;;;;;;12.48;8.20;;;19.50;99.90;;;;;;4957238;28;20050;-77
2023/09/10 04:38:05;;;;;;;16.70;8.93;;;19.50;99.90;;;;;;4956965;28;20038;-76
2023/09/10 04:40:37;;;;;;;11.77;8.57;;;19.40;99.90;;;;;;4954644;29;20035;-76
2023/09/10 04:43:03;;;;;;;17.55;9.45;;;19.40;99.90;;;;;;4969117;28;20051;-75
2023/09/10 04:45:28;;;;;;;12.75;8.30;;;19.30;99.90;;;;;;4956404;28;20078;-75
2023/09/10 04:47:54;;;;;;;16.65;9.10;;;19.30;99.90;;;;;;4953486;28;20023;-77
2023/09/10 04:50:20;;;;;;;13.95;9.32;;;19.30;99.90;;;;;;4971003;28;20042;-76
2023/09/10 04:52:45;;;;;;;16.50;9.82;;;19.30;99.90;;;;;;4954526;28;20558;-77
2023/09/10 04:55:17;;;;;;;15.07;8.70;;;19.30;99.90;;;;;;4954297;28;20889;-77
2023/09/10 04:57:43;;;;;;;13.20;8.13;;;19.30;99.90;;;;;;4952963;28;20097;-76
2023/09/10 05:00:12;;;;;;;13.63;9.45;;;19.30;99.90;;;;;;4956074;29;20031;-76
2023/09/10 05:02:40;;;;;;;12.52;9.10;;;19.30;99.90;;;;;;4955100;28;20039;-75
2023/09/10 05:05:06;;;;;;;13.63;9.10;;;19.30;99.90;;;;;;4955765;29;20019;-75
2023/09/10 05:07:32;;;;;;;11.13;8.32;;;19.30;99.90;;;;;;4954588;28;20015;-76
2023/09/10 05:10:00;;;;;;;13.07;9.15;;;19.30;99.90;;;;;;4956076;28;20578;-76
2023/09/10 05:12:26;;;;;;;14.27;8.55;;;19.30;99.90;;;;;;4955308;28;20430;-76
2023/09/10 05:14:54;;;;;;;12.23;8.90;;;19.30;99.90;;;;;;4955415;28;20035;-76
2023/09/10 05:17:20;;;;;;;12.20;9.25;;;19.40;99.90;;;;;;4956455;28;20035;-76
2023/09/10 05:19:51;;;;;;;11.10;8.88;;;19.40;99.90;;;;;;4955237;28;20379;-75
2023/09/10 05:22:17;;;;;;;12.10;9.27;;;19.40;99.90;;;;;;4956587;28;20031;-76
2023/09/10 05:24:49;;;;;;;13.63;9.15;;;19.40;99.90;;;;;;4954198;28;20553;-76
2023/09/10 05:27:14;;;;;;;9.82;8.15;;;19.40;99.90;;;;;;4955464;28;20031;-76
2023/09/10 05:29:46;;;;;;;11.27;9.05;;;19.50;99.90;;;;;;4954449;28;20082;-76
2023/09/10 05:32:21;;;;;;;11.82;8.75;;;19.50;99.90;;;;;;4954915;28;20019;-75
2023/09/10 05:34:50;;;;;;;13.10;8.38;;;19.60;99.90;;;;;;4955086;28;20078;-76
2023/09/10 05:37:15;;;;;;;11.80;8.35;;;19.60;99.90;;;;;;4956403;28;20098;-77
2023/09/10 05:39:41;;;;;;;10.95;7.00;;;19.70;99.90;;;;;;4953168;28;20118;-77
2023/09/10 05:42:07;;;;;;;9.68;7.38;;;19.70;99.90;;;;;;4953247;28;20050;-75
2023/09/10 05:44:32;;;;;;;14.90;9.13;;;19.80;99.90;;;;;;4955931;28;20106;-76
2023/09/10 05:46:58;;;;;;;12.68;8.70;;;19.80;99.90;;;;;;4953239;28;20023;-76
2023/09/10 05:49:24;;;;;;;12.35;8.73;;;19.80;99.90;;;;;;4970530;28;20090;-76
2023/09/10 05:51:52;;;;;;;11.32;8.85;;;19.90;99.90;;;;;;4953440;28;20035;-75
2023/09/10 05:54:18;;;;;;;12.65;9.00;;;19.90;99.90;;;;;;4954751;28;20070;-76
2023/09/10 05:56:49;;;;;;;13.25;9.18;;;19.90;99.90;;;;;;4955497;28;20058;-76
2023/09/10 05:59:21;;;;;;;16.52;9.85;;;20.00;99.90;;;;;;4953355;29;20034;-76
2023/09/10 06:01:53;;;;;;;20.75;9.93;;;20.00;99.90;;;;;;4954794;28;20027;-76
2023/09/10 06:04:18;;;;;;;15.50;10.55;;;20.10;99.90;;;;;;4972378;28;20019;-77
2023/09/10 06:06:44;;;;;;;23.35;10.40;;;20.10;99.90;;;;;;4956494;28;20386;-77
2023/09/10 06:09:19;;;;;;;11.23;8.85;;;20.10;99.90;;;;;;4955655;29;20043;-76
2023/09/10 06:11:51;;;;;;;12.43;9.23;;;20.10;99.90;;;;;;4956284;28;20015;-77
2023/09/10 06:14:30;;;;;;;17.83;10.02;;;20.20;99.90;;;;;;4971870;28;20055;-77
2023/09/10 06:16:56;;;;;;;15.85;10.63;;;20.20;99.90;;;;;;4953518;28;20051;-76
2023/09/10 06:19:25;;;;;;;14.65;9.82;;;20.20;99.90;;;;;;4955951;28;20039;-77
2023/09/10 06:21:56;;;;;;;14.27;10.10;;;20.20;99.90;;;;;;4956424;28;20038;-77
2023/09/10 06:24:25;;;;;;;12.93;10.27;;;20.20;99.90;;;;;;4953809;28;20023;-76
2023/09/10 06:26:51;;;;;;;12.77;9.38;;;20.20;99.90;;;;;;4953925;29;20034;-76
2023/09/10 06:29:16;;;;;;;17.83;9.77;;;20.20;99.90;;;;;;4954384;28;20036;-76
2023/09/10 06:31:42;;;;;;;12.65;10.15;;;20.20;99.90;;;;;;4954037;28;20101;-76
2023/09/10 06:34:10;;;;;;;15.82;10.02;;;20.20;99.90;;;;;;4954965;28;20106;-76
2023/09/10 06:36:45;;;;;;;16.38;10.57;;;20.20;99.90;;;;;;4955079;28;20426;-76
2023/09/10 06:39:26;;;;;;;13.65;9.23;;;20.20;99.90;;;;;;4954808;28;20043;-76
2023/09/10 06:41:54;;;;;;;16.38;8.90;;;20.20;99.90;;;;;;4954540;28;20031;-76
2023/09/10 06:44:23;;;;;;;14.35;9.25;;;20.20;99.90;;;;;;4955374;29;20027;-76
2023/09/10 06:47:01;;;;;;;11.18;8.77;;;20.20;99.90;;;;;;4953394;28;20074;-75
2023/09/10 06:49:41;;;;;;;14.63;9.93;;;20.20;99.90;;;;;;4952990;28;20041;-75
2023/09/10 06:52:14;;;;;;;13.82;8.45;;;20.30;99.90;;;;;;4966562;28;20050;-75
2023/09/10 06:54:43;;;;;;;12.10;8.23;;;20.30;99.90;;;;;;4954681;28;20027;-75
2023/09/10 06:57:09;;;;;;;14.88;9.35;;;20.40;99.90;;;;;;4952514;28;20536;-76
2023/09/10 06:59:34;;;;;;;16.83;9.52;;;20.50;99.90;;;;;;4952959;28;20027;-76
2023/09/10 07:02:00;;;;;;;13.65;9.00;;;20.50;99.90;;;;;;4954768;28;20391;-76
2023/09/10 07:04:31;;;;;;;11.15;8.48;;;20.60;99.90;;;;;;4954973;28;20054;-75
2023/09/10 07:06:57;;;;;;;12.45;9.02;;;20.60;99.90;;;;;;4953446;28;20482;-76
2023/09/10 07:09:23;;;;;;;13.45;8.57;;;20.60;99.90;;;;;;4953417;28;20031;-76
2023/09/10 07:11:53;;;;;;;11.98;9.23;;;20.70;99.90;;;;;;4953189;28;20027;-76
2023/09/10 07:14:22;;;;;;;12.55;9.40;;;20.70;99.90;;;;;;4950931;28;20110;-76
2023/09/10 07:16:48;;;;;;;12.25;8.70;;;20.80;99.90;;;;;;4954152;28;20042;-75
2023/09/10 07:19:14;;;;;;;13.85;9.20;;;20.80;99.90;;;;;;4953621;28;20106;-75
2023/09/10 07:21:43;;;;;;;14.20;9.38;;;20.90;99.90;;;;;;4954063;28;20154;-75
2023/09/10 07:24:11;;;;;;;14.48;9.32;;;20.90;99.90;;;;;;4951899;28;20106;-76
2023/09/10 07:27:01;;;;;;;14.75;9.30;;;21.00;99.90;;;;;;4953413;28;20490;-76
2023/09/10 07:29:27;;;;;;;12.48;9.32;;;21.10;99.90;;;;;;4951982;29;20934;-75
2023/09/10 07:31:53;;;;;;;17.17;9.63;;;21.10;99.90;;;;;;4968504;28;20050;-79
2023/09/10 07:34:20;;;;;;;13.63;9.10;;;21.20;99.90;;;;;;4977871;28;20031;-80
2023/09/10 07:36:46;;;;;;;16.73;9.60;;;21.20;99.90;;;;;;4963565;28;20038;-79
2023/09/10 07:39:12;;;;;;;10.73;8.65;;;21.30;99.90;;;;;;4961640;28;20035;-80
2023/09/10 07:41:37;;;;;;;12.82;8.75;;;21.30;99.90;;;;;;4963505;28;20098;-79
2023/09/10 07:44:06;;;;;;;13.68;8.65;;;21.40;99.90;;;;;;4979082;28;20027;-79
2023/09/10 07:46:35;;;;;;;10.27;8.38;;;21.40;99.90;;;;;;4963666;28;20427;-79
2023/09/10 07:49:06;;;;;;;14.43;9.13;;;21.50;99.90;;;;;;4958903;29;20039;-79
2023/09/10 07:51:35;;;;;;;13.32;10.23;;;21.60;99.90;;;;;;4975771;28;20419;-79
2023/09/10 07:54:07;;;;;;;14.13;9.60;;;21.60;99.90;;;;;;4964486;28;20486;-79
2023/09/10 07:56:38;;;;;;;13.75;9.70;;;21.70;99.90;;;;;;4960397;28;20379;-80
2023/09/10 07:59:04;;;;;;;12.52;9.50;;;21.70;99.90;;;;;;4959871;28;20035;-79
2023/09/10 08:01:30;;;;;;;14.45;10.10;;;21.80;99.90;;;;;;4963953;28;20054;-80
2023/09/10 08:03:55;;;;;;;12.75;9.52;;;21.80;99.90;;;;;;4962542;28;20027;-80
2023/09/10 08:06:21;;;;;;;11.32;8.98;;;21.90;99.90;;;;;;4963321;28;20610;-79
2023/09/10 08:08:47;;;;;;;11.07;9.07;;;22.00;99.90;;;;;;4961999;28;20022;-79
2023/09/10 08:11:12;;;;;;;13.68;9.10;;;22.00;99.90;;;;;;4958907;28;20046;-79
2023/09/10 08:13:47;;;;;;;13.00;9.38;;;22.10;99.90;;;;;;4958381;28;20055;-79
2023/09/10 08:16:18;;;;;;;12.73;8.90;;;22.10;99.90;;;;;;4959779;28;20031;-79
2023/09/10 08:18:53;;;;;;;16.02;10.40;;;22.20;99.90;;;;;;4960801;28;20391;-79
2023/09/10 08:21:21;;;;;;;10.70;9.02;;;22.20;99.90;;;;;;4963860;28;20034;-79
2023/09/10 08:23:47;;;;;;;15.43;9.35;;;22.20;99.90;;;;;;4976287;28;20070;-79
2023/09/10 08:26:22;;;;;;;11.20;8.60;;;22.30;99.90;;;;;;4963223;28;20032;-79
2023/09/10 08:28:50;;;;;;;11.82;9.10;;;22.40;99.90;;;;;;4963281;28;20528;-79
2023/09/10 08:31:16;;;;;;;11.90;9.95;;;22.40;99.90;;;;;;4974485;28;20501;-79
2023/09/10 08:33:48;;;;;;;16.08;9.45;;;22.40;99.90;;;;;;4976770;28;20106;-79
2023/09/10 08:36:23;;;;;;;14.40;9.10;;;22.50;99.90;;;;;;4963154;28;20034;-79
2023/09/10 08:38:53;;;;;;;14.13;9.02;;;22.60;99.90;;;;;;4962470;29;20486;-79
2023/09/10 08:41:45;;;;;;;17.15;8.95;;;22.60;99.90;;;;;;4961460;29;20038;-79
2023/09/10 08:44:17;;;;;;;14.10;8.90;;;22.70;99.90;;;;;;4958964;28;20035;-79
2023/09/10 08:46:48;;;;;;;12.90;9.70;;;22.80;99.90;;;;;;4958200;28;20023;-78
2023/09/10 08:49:26;;;;;;;15.65;8.77;;;22.90;99.90;;;;;;4958856;28;20405;-79
2023/09/10 08:51:52;;;;;;;13.70;8.80;;;23.00;99.90;;;;;;4957667;28;20011;-79
2023/09/10 08:54:20;;;;;;;14.35;9.07;;;23.00;99.90;;;;;;4961714;28;20027;-79
2023/09/10 08:56:54;;;;;;;15.45;8.57;;;23.10;99.90;;;;;;4958164;28;20023;-80
2023/09/10 08:59:26;;;;;;;11.57;8.88;;;23.10;99.90;;;;;;4958126;28;20015;-80
2023/09/10 09:01:56;;;;;;;12.10;8.55;;;23.20;99.90;;;;;;4957134;28;20026;-80
2023/09/10 09:04:30;;;;;;;13.20;8.82;;;23.30;99.90;;;;;;4957969;28;20023;-79
2023/09/10 09:06:57;;;;;;;13.02;8.85;;;23.30;99.90;;;;;;4958686;28;20067;-79
2023/09/10 09:09:30;;;;;;;11.50;8.82;;;23.40;99.90;;;;;;4972343;28;20191;-78
2023/09/10 09:11:56;;;;;;;13.70;8.25;;;23.60;99.90;;;;;;4958615;28;20478;-79
2023/09/10 09:14:23;;;;;;;13.73;9.15;;;23.60;99.90;;;;;;4960969;28;20010;-79
2023/09/10 09:16:53;;;;;;;13.80;8.15;;;23.70;99.90;;;;;;4976525;28;20541;-79
2023/09/10 09:19:21;;;;;;;13.45;9.10;;;23.80;99.90;;;;;;4957503;28;20050;-79
2023/09/10 09:21:49;;;;;;;10.93;8.43;;;23.70;99.90;;;;;;4976727;28;20542;-79
2023/09/10 09:24:21;;;;;;;21.52;8.52;;;23.80;99.90;;;;;;4958990;28;20024;-79
2023/09/10 09:26:47;;;;;;;11.40;8.45;;;23.90;99.90;;;;;;4976138;28;20091;-78
2023/09/10 09:29:16;;;;;;;12.85;7.82;;;24.00;99.90;;;;;;4961379;28;20023;-79
2023/09/10 09:31:42;;;;;;;12.10;8.48;;;24.10;99.90;;;;;;4974532;28;20019;-79
2023/09/10 09:34:07;;;;;;;14.20;8.73;;;24.20;99.90;;;;;;4962396;28;20035;-79
2023/09/10 09:36:36;;;;;;;10.73;8.13;;;24.30;99.90;;;;;;4960462;28;20063;-79
2023/09/10 09:39:08;;;;;;;13.68;9.85;;;24.30;99.90;;;;;;4960924;28;20100;-79
2023/09/10 09:41:49;;;;;;;12.50;8.68;;;24.40;99.90;;;;;;4973033;28;20031;-78
2023/09/10 09:44:21;;;;;;;14.32;8.65;;;24.50;99.90;;;;;;4957612;28;20078;-79
2023/09/10 09:46:47;;;;;;;11.65;8.02;;;24.60;99.90;;;;;;4975972;28;20043;-79
2023/09/10 09:49:16;;;;;;;14.43;8.27;;;24.60;99.90;;;;;;4958499;28;20058;-80
2023/09/10 09:51:51;;;;;;;12.63;8.50;;;24.70;99.90;;;;;;4958308;28;20066;-79
2023/09/10 09:54:24;;;;;;;12.98;9.00;;;24.80;99.90;;;;;;4973542;28;20036;-80
2023/09/10 09:56:56;;;;;;;13.93;7.78;;;24.80;99.90;;;;;;4958103;28;20039;-80
2023/09/10 09:59:22;;;;;;;10.07;8.50;;;24.90;99.90;;;;;;4957849;28;20039;-79
2023/09/10 10:01:57;;;;;;;18.13;8.25;;;25.00;99.90;;;;;;4976125;28;20030;-80
2023/09/10 10:04:26;;;;;;;9.95;7.70;;;25.00;99.90;;;;;;4971214;28;20016;-80
2023/09/10 10:07:04;;;;;;;14.25;8.60;;;25.00;99.90;;;;;;4976795;28;20501;-80
2023/09/10 10:09:35;;;;;;;14.98;8.25;;;25.10;99.90;;;;;;4960940;28;20015;-80
2023/09/10 10:12:04;;;;;;;10.48;7.82;;;25.10;99.90;;;;;;4961172;28;20027;-80
2023/09/10 10:14:36;;;;;;;10.65;8.05;;;25.20;99.90;;;;;;4960787;28;20031;-80
2023/09/10 10:17:09;;;;;;;12.68;8.10;;;25.20;99.90;;;;;;4975146;28;20090;-80
2023/09/10 10:19:35;;;;;;;15.32;8.10;;;25.20;99.90;;;;;;4960943;28;20019;-80
2023/09/10 10:22:08;;;;;;;11.52;7.50;;;25.20;99.90;;;;;;4975255;28;20074;-79
2023/09/10 10:24:39;;;;;;;12.57;8.43;;;25.30;99.90;;;;;;4960957;28;20023;-80
2023/09/10 10:27:14;;;;;;;12.90;8.07;;;25.30;99.90;;;;;;4961841;28;20474;-79
2023/09/10 10:29:40;;;;;;;14.30;8.13;;;25.40;99.90;;;;;;4978550;28;20020;-80
2023/09/10 10:32:25;;;;;;;11.15;7.50;;;25.40;99.90;;;;;;4964700;28;20023;-80
2023/09/10 10:35:10;;;;;;;7.43;6.68;;;25.40;99.90;;;;;;4962540;29;20020;-79
2023/09/10 10:37:41;;;;;;;10.50;7.40;;;25.60;99.90;;;;;;4962142;28;20027;-79
2023/09/10 10:40:18;;;;;;;10.43;7.80;;;25.70;99.90;;;;;;4964728;28;20082;-79
2023/09/10 10:43:12;;;;;;;12.07;7.00;;;25.70;99.90;;;;;;4978528;28;20513;-79
2023/09/10 10:45:38;;;;;;;8.75;7.25;;;25.80;99.90;;;;;;4962726;29;20470;-79
2023/09/10 10:48:24;;;;;;;14.18;7.90;;;25.90;99.90;;;;;;4963803;28;20047;-79
2023/09/10 10:51:10;;;;;;;10.90;6.72;;;25.90;99.90;;;;;;4962982;28;20529;-79
2023/09/10 10:53:43;;;;;;;10.80;8.05;;;26.00;99.90;;;;;;4960769;28;20038;-79
2023/09/10 10:56:13;;;;;;;11.52;8.02;;;26.10;99.90;;;;;;4958175;28;20054;-78
2023/09/10 10:58:41;;;;;;;10.20;8.43;;;26.10;99.90;;;;;;4957827;28;20024;-79
2023/09/10 11:01:12;;;;;;;10.75;7.07;;;26.10;99.90;;;;;;4960589;28;20027;-80
2023/09/10 11:03:46;;;;;;;12.45;7.63;;;26.10;99.90;;;;;;4962472;28;20030;-80
2023/09/10 11:06:12;;;;;;;10.60;7.90;;;26.20;99.90;;;;;;4977937;28;20032;-79
2023/09/10 11:08:48;;;;;;;9.80;7.00;;;26.20;99.90;;;;;;4977891;28;20356;-80
2023/09/10 11:11:32;;;;;;;11.95;7.63;;;26.30;99.90;;;;;;4959040;28;20030;-79
2023/09/10 11:14:09;;;;;;;12.23;7.95;;;26.30;99.90;;;;;;4960447;28;20035;-79
2023/09/10 11:16:36;;;;;;;9.93;7.43;;;26.40;99.90;;;;;;4960891;28;20035;-80
2023/09/10 11:19:12;;;;;;;13.40;8.25;;;26.30;99.90;;;;;;4960003;28;20061;-79
2023/09/10 11:22:02;;;;;;;10.52;8.23;;;26.40;99.60;;;;;;4962473;28;20477;-79
2023/09/10 11:24:32;;;;;;;11.45;7.88;;;26.50;99.20;;;;;;4965179;28;20016;-79
2023/09/10 11:27:18;;;;;;;11.23;7.65;;;26.60;99.20;;;;;;4959582;28;20090;-79
2023/09/10 11:30:19;;;;;;;9.52;7.25;;;26.60;98.90;;;;;;4959255;28;20050;-79
2023/09/10 11:32:45;;;;;;;8.40;7.15;;;26.70;99.00;;;;;;4961656;28;20039;-80
2023/09/10 11:35:24;;;;;;;11.43;7.30;;;26.80;98.90;;;;;;4959154;28;20035;-79
2023/09/10 11:37:55;;;;;;;8.95;7.35;;;26.80;98.60;;;;;;4959091;28;20035;-81
2023/09/10 11:40:21;;;;;;;14.15;7.63;;;26.80;98.50;;;;;;4961302;28;20022;-81
2023/09/10 11:42:49;;;;;;;8.82;6.07;;;26.90;98.30;;;;;;4960800;28;20553;-81
2023/09/10 11:45:16;;;;;;;10.60;7.22;;;26.90;98.00;;;;;;4962149;28;20035;-79
2023/09/10 11:47:46;;;;;;;8.50;6.28;;;27.00;98.00;;;;;;4961873;28;20026;-81
2023/09/10 11:50:26;;;;;;;10.70;7.25;;;27.00;97.90;;;;;;4958652;28;20525;-80
2023/09/10 11:52:51;;;;;;;12.57;6.80;;;27.00;97.80;;;;;;4974470;28;20027;-81
2023/09/10 11:55:20;;;;;;;9.05;7.15;;;27.00;97.80;;;;;;4958839;28;20102;-80
2023/09/10 11:57:46;;;;;;;10.55;7.47;;;27.00;97.80;;;;;;4961142;28;20436;-80
2023/09/10 12:00:13;;;;;;;17.33;8.68;;;27.00;97.50;;;;;;4956314;28;20481;-79
2023/09/10 12:02:40;;;;;;;8.85;6.88;;;27.10;97.40;;;;;;4960808;28;20031;-80
2023/09/10 12:05:12;;;;;;;8.57;6.40;;;27.20;97.10;;;;;;4960823;28;20047;-79
2023/09/10 12:07:43;;;;;;;7.82;6.05;;;27.10;96.80;;;;;;4960761;29;20027;-79
2023/09/10 12:10:20;;;;;;;9.02;6.78;;;27.30;96.70;;;;;;4960472;28;20028;-81
2023/09/10 12:13:03;;;;;;;9.52;6.20;;;27.30;96.30;;;;;;4961024;28;20038;-79
2023/09/10 12:15:38;;;;;;;10.65;6.70;;;27.30;96.00;;;;;;4962866;28;20051;-81
2023/09/10 12:18:05;;;;;;;8.18;6.18;;;27.30;95.80;;;;;;4962771;28;20074;-80
2023/09/10 12:20:33;;;;;;;5.72;5.20;;;27.30;95.40;;;;;;4959034;29;20442;-79
2023/09/10 12:23:00;;;;;;;8.40;5.80;;;27.30;94.50;;;;;;4960675;28;20021;-80
2023/09/10 12:25:26;;;;;;;10.57;6.47;;;27.30;94.30;;;;;;4975664;28;20027;-79
2023/09/10 12:27:53;;;;;;;9.75;6.10;;;27.30;94.20;;;;;;4963695;28;20058;-79
2023/09/10 12:30:20;;;;;;;7.57;5.50;;;27.40;94.20;;;;;;4975899;28;20094;-79
2023/09/10 12:32:49;;;;;;;11.40;6.43;;;27.40;93.90;;;;;;4960535;28;20024;-80
2023/09/10 12:35:21;;;;;;;8.20;6.07;;;27.40;94.10;;;;;;4961117;28;20032;-80
2023/09/10 12:37:52;;;;;;;10.38;6.07;;;27.40;94.10;;;;;;4971231;28;20874;-79
2023/09/10 12:40:22;;;;;;;9.05;6.15;;;27.40;94.10;;;;;;4946223;28;20059;-70
2023/09/10 12:42:49;;;;;;;9.40;6.03;;;27.40;93.80;;;;;;4942635;28;20039;-71
2023/09/10 12:45:15;;;;;;;8.23;5.78;;;27.50;92.90;;;;;;4953787;28;20147;-70
2023/09/10 12:47:42;;;;;;;8.73;6.20;;;27.60;92.70;;;;;;4952367;28;20034;-71
2023/09/10 12:50:08;;;;;;;7.70;5.38;;;27.60;92.60;;;;;;4954195;28;20058;-71
2023/09/10 12:52:35;;;;;;;8.50;6.22;;;27.60;92.80;;;;;;4947148;28;20031;-77
2023/09/10 12:55:02;;;;;;;11.80;6.15;;;27.60;92.70;;;;;;4962165;28;20618;-77